
Distance (Route):
Temperature : 17.4°C
Humidity : 72.3%
Pressure : 0hPa| Receiver | Date | Latitude | Longitude | Direction | Speed | Altitude | Climb | Temperature | Humidity | Pressure | Voltage | Killtimer | Uptime | BKT | XDATA |
|---|---|---|---|---|---|---|---|---|---|---|---|---|---|---|---|
| LZ4TU-5 | 2026-09-01 19:13:53 | 43.27375 | 22.83233 | 257° | 11km/h | 1702m | -12.4m/s | 17.4°C | 72.3% | 0hPa | 0V | 00:00:00 | 00:00:00 | 00:00:00 | |
| LZ4TU-5 | 2026-09-01 19:13:48 | 43.27383 | 22.83251 | 243° | 15km/h | 1763m | -12.8m/s | 16.8°C | 74.3% | 0hPa | 0V | 00:00:00 | 00:00:00 | 00:00:00 | |
| LZ4TU-5 | 2026-09-01 19:13:43 | 43.27390 | 22.83275 | 254° | 15km/h | 1826m | -12.6m/s | 16.3°C | 76.2% | 0hPa | 0V | 00:00:00 | 00:00:00 | 00:00:00 | |
| LZ4TU-5 | 2026-09-01 19:13:38 | 43.27394 | 22.83296 | 264° | 11km/h | 1891m | -12.0m/s | 15.9°C | 77.2% | 0hPa | 0V | 00:00:00 | 00:00:00 | 00:00:00 | |
| LZ4TU-5 | 2026-09-01 19:13:34 | 43.27394 | 22.83311 | 266° | 9km/h | 1942m | -12.4m/s | 15.4°C | 79.4% | 0hPa | 0V | 00:00:00 | 00:00:00 | 00:00:00 | |
| LZ4TU-5 | 2026-09-01 19:13:29 | 43.27397 | 22.83325 | 254° | 7km/h | 2005m | -12.3m/s | 14.7°C | 83.0% | 0hPa | 0V | 00:00:00 | 00:00:00 | 00:00:00 | |
| LZ4TU-5 | 2026-09-01 19:13:24 | 43.27399 | 22.83336 | 271° | 7km/h | 2056m | -11.6m/s | 14.1°C | 84.5% | 0hPa | 0V | 00:00:00 | 00:00:00 | 00:00:00 | |
| LZ4TU-5 | 2026-09-01 19:13:20 | 43.27398 | 22.83345 | 270° | 5km/h | 2106m | -12.2m/s | 13.7°C | 85.4% | 0hPa | 0V | 00:00:00 | 00:00:00 | 00:00:00 | |
| LZ4TU-5 | 2026-09-01 19:13:14 | 43.27397 | 22.83354 | 0° | 0km/h | 2187m | -13.1m/s | 13.3°C | 84.9% | 0hPa | 0V | 00:00:00 | 00:00:00 | 00:00:00 | |
| LZ4TU-5 | 2026-09-01 19:13:09 | 43.27397 | 22.83355 | 0° | 0km/h | 2255m | -13.4m/s | 13.1°C | 83.0% | 0hPa | 0V | 00:00:00 | 00:00:00 | 00:00:00 | |
| LZ4TU-5 | 2026-09-01 19:13:05 | 43.27395 | 22.83354 | 0° | 0km/h | 2308m | -13.6m/s | 12.7°C | 84.6% | 0hPa | 0V | 00:00:00 | 00:00:00 | 00:00:00 | |
| LZ4TU-5 | 2026-09-01 19:13:00 | 43.27394 | 22.83353 | 0° | 0km/h | 2366m | -13.9m/s | 12.1°C | 86.5% | 0hPa | 0V | 00:00:00 | 00:00:00 | 00:00:00 | |
| LZ4TU-5 | 2026-09-01 19:12:55 | 43.27392 | 22.83349 | 91° | 2km/h | 2437m | -13.4m/s | 11.5°C | 88.8% | 0hPa | 0V | 00:00:00 | 00:00:00 | 00:00:00 | |
| LZ4TU-5 | 2026-09-01 19:12:51 | 43.27392 | 22.83345 | 92° | 4km/h | 2493m | -13.4m/s | 11.0°C | 90.3% | 0hPa | 0V | 00:00:00 | 00:00:00 | 00:00:00 | |
| LZ4TU-5 | 2026-09-01 19:12:41 | 43.27389 | 22.83328 | 91° | 7km/h | 2632m | -13.4m/s | 9.9°C | 89.4% | 0hPa | 0V | 00:00:00 | 00:00:00 | 00:00:00 | |
| LZ4TU-5 | 2026-09-01 19:12:36 | 43.27388 | 22.83315 | 96° | 9km/h | 2697m | -13.1m/s | 9.5°C | 82.2% | 0hPa | 0V | 00:00:00 | 00:00:00 | 00:00:00 | |
| LZ4TU-5 | 2026-09-01 19:12:31 | 43.27391 | 22.83294 | 94° | 16km/h | 2760m | -12.9m/s | 9.0°C | 77.3% | 0hPa | 0V | 00:00:00 | 00:00:00 | 00:00:00 | |
| LZ4TU-5 | 2026-09-01 19:12:27 | 43.27392 | 22.83267 | 99° | 22km/h | 2814m | -12.9m/s | 10.2°C | 46.4% | 0hPa | 0V | 00:00:00 | 00:00:00 | 00:00:00 | |
| LZ4TU-5 | 2026-09-01 19:12:22 | 43.27397 | 22.83232 | 106° | 20km/h | 2882m | -13.2m/s | 9.6°C | 45.8% | 0hPa | 0V | 00:00:00 | 00:00:00 | 00:00:00 | |
| LZ4TU-5 | 2026-09-01 19:12:18 | 43.27402 | 22.83205 | 106° | 20km/h | 2936m | -13.7m/s | 9.1°C | 45.4% | 0hPa | 0V | 00:00:00 | 00:00:00 | 00:00:00 | |
| LZ4TU-5 | 2026-09-01 19:12:13 | 43.27410 | 22.83171 | 111° | 22km/h | 2993m | -13.5m/s | 8.6°C | 44.8% | 0hPa | 0V | 00:00:00 | 00:00:00 | 00:00:00 | |
| LZ4TU-5 | 2026-09-01 19:12:09 | 43.27417 | 22.83142 | 114° | 22km/h | 3050m | -13.5m/s | 8.1°C | 44.1% | 0hPa | 0V | 00:00:00 | 00:00:00 | 00:00:00 | |
| LZ4TU-5 | 2026-09-01 19:12:04 | 43.27430 | 22.83104 | 116° | 26km/h | 3121m | -13.9m/s | 7.5°C | 42.5% | 0hPa | 0V | 00:00:00 | 00:00:00 | 00:00:00 | |
| LZ4TU-5 | 2026-09-01 19:12:00 | 43.27442 | 22.83071 | 118° | 27km/h | 3178m | -13.8m/s | 7.1°C | 41.5% | 0hPa | 0V | 00:00:00 | 00:00:00 | 00:00:00 | |
| LZ4TU-5 | 2026-09-01 19:11:55 | 43.27459 | 22.83025 | 117° | 33km/h | 3250m | -14.1m/s | 7.1°C | 37.0% | 0hPa | 0V | 00:00:00 | 00:00:00 | 00:00:00 | |
| LZ4TU-5 | 2026-09-01 19:11:50 | 43.27478 | 22.82972 | 118° | 35km/h | 3319m | -14.1m/s | 6.5°C | 40.3% | 0hPa | 0V | 00:00:00 | 00:00:00 | 00:00:00 | |
| LZ4TU-5 | 2026-09-01 19:11:46 | 43.27494 | 22.82928 | 118° | 38km/h | 3370m | -14.2m/s | 5.9°C | 42.6% | 0hPa | 0V | 00:00:00 | 00:00:00 | 00:00:00 | |
| LZ4TU-5 | 2026-09-01 19:11:41 | 43.27515 | 22.82867 | 117° | 40km/h | 3444m | -14.4m/s | 5.2°C | 51.4% | 0hPa | 0V | 00:00:00 | 00:00:00 | 00:00:00 | |
| LZ4TU-5 | 2026-09-01 19:11:36 | 43.27538 | 22.82803 | 118° | 44km/h | 3518m | -14.1m/s | 4.5°C | 54.9% | 0hPa | 0V | 00:00:00 | 00:00:00 | 00:00:00 | |
| LZ4TU-5 | 2026-09-01 19:11:31 | 43.27562 | 22.82731 | 114° | 47km/h | 3592m | -14.3m/s | 3.7°C | 0% | 0hPa | 0V | 00:00:00 | 00:00:00 | 00:00:00 | |
| LZ4TU-5 | 2026-09-01 19:09:38 | 43.27847 | 22.81108 | 104° | 40km/h | 5308m | -16.8m/s | -4.8°C | 9.4% | 0hPa | 0V | 00:00:00 | 00:00:00 | 00:00:00 | |
| LZ4TU-5 | 2026-09-01 19:09:33 | 43.27857 | 22.81040 | 103° | 40km/h | 5395m | -16.8m/s | -5.3°C | 0% | 0hPa | 0V | 00:00:00 | 00:00:00 | 00:00:00 | |
| LZ4TU-5 | 2026-09-01 19:08:37 | 43.28010 | 22.80178 | 105° | 49km/h | 6346m | -17.6m/s | -11.6°C | 5.4% | 0hPa | 0V | 00:00:00 | 00:00:00 | 00:00:00 | |
| LZ4TU-5 | 2026-09-01 19:08:32 | 43.28027 | 22.80095 | 106° | 49km/h | 6436m | -17.8m/s | -12.1°C | 5.1% | 0hPa | 0V | 00:00:00 | 00:00:00 | 00:00:00 | |
| LZ4TU-5 | 2026-09-01 19:07:35 | 43.28318 | 22.79031 | 113° | 66km/h | 7451m | -19.1m/s | -19.4°C | 31.6% | 0hPa | 0V | 00:00:00 | 00:00:00 | 00:00:00 | |
| LZ4TU-5 | 2026-09-01 19:07:31 | 43.28344 | 22.78948 | 110° | 64km/h | 7522m | -19.5m/s | -20.0°C | 32.7% | 0hPa | 0V | 00:00:00 | 00:00:00 | 00:00:00 | |
| LZ4TU-5 | 2026-09-01 19:07:23 | 43.28389 | 22.78784 | 110° | 62km/h | 7670m | -19.2m/s | -21.1°C | 30.7% | 0hPa | 0V | 00:00:00 | 00:00:00 | 00:00:00 | |
| LZ4TU-5 | 2026-09-01 19:07:18 | 43.28413 | 22.78682 | 108° | 62km/h | 7768m | -19.1m/s | -21.7°C | 26.7% | 0hPa | 0V | 00:00:00 | 00:00:00 | 00:00:00 | |
| LZ4TU-5 | 2026-09-01 19:07:04 | 43.28483 | 22.78377 | 106° | 68km/h | 8047m | -19.5m/s | -23.8°C | 25.6% | 0hPa | 0V | 00:00:00 | 00:00:00 | 00:00:00 | |
| LZ4TU-5 | 2026-09-01 19:06:43 | 43.28560 | 22.77912 | 101° | 64km/h | 8447m | -19.6m/s | -27.3°C | 0% | 0hPa | 0V | 00:00:00 | 00:00:00 | 00:00:00 | |
| LZ4TU-5 | 2026-09-01 18:59:32 | 43.28238 | 22.65492 | 65° | 16km/h | 19184m | -37.1m/s | -58.3°C | 0.0% | 0hPa | 0V | 00:00:00 | 00:00:00 | 00:00:00 | |
| LZ4TU-5 | 2026-09-01 18:59:28 | 43.28227 | 22.65477 | 30° | 18km/h | 19328m | -37.7m/s | -57.1°C | 0.0% | 0hPa | 0V | 00:00:00 | 00:00:00 | 00:00:00 | |
| LZ4TU-5 | 2026-09-01 18:58:16 | 43.28169 | 22.65356 | 303° | 5km/h | 22402m | -48.3m/s | -53.9°C | 0% | 0hPa | 0V | 00:00:00 | 00:00:00 | 00:00:00 | |
| LZ4TU-5 | 2026-09-01 18:58:04 | 43.28165 | 22.65341 | 0° | 0km/h | 22982m | -49.2m/s | -52.6°C | 0.0% | 0hPa | 0V | 00:00:00 | 00:00:00 | 00:00:00 | |
| LZ4TU-5 | 2026-09-01 18:55:22 | 43.28275 | 22.66140 | 255° | 29km/h | 32677m | 6.7m/s | -39.0°C | 0.0% | 0hPa | 0V | 00:00:00 | 00:00:00 | 00:00:00 | |
| LZ4TU-5 | 2026-09-01 18:55:17 | 43.28290 | 22.66245 | 262° | 51km/h | 32651m | 3.4m/s | -39.1°C | 0.0% | 0hPa | 0V | 00:00:00 | 00:00:00 | 00:00:00 | |
| LZ3DJ-16 | 2026-09-01 18:55:14 | 43.28289 | 22.66265 | 33° | 15km/h | 32623m | 9.6m/s | -39.1°C | 0.0% | 0hPa | 0V | 00:00:00 | 00:00:00 | 00:00:00 | |
| LZ3DJ-16 | 2026-09-01 18:54:40 | 43.28333 | 22.66558 | 123° | 20km/h | 32427m | 7.2m/s | -39.5°C | 0.0% | 0hPa | 0V | 00:00:00 | 00:00:00 | 00:00:00 | |
| LZ3DJ-16 | 2026-09-01 18:54:20 | 43.28366 | 22.66769 | 157° | 24km/h | 32303m | 5.9m/s | -39.5°C | 0.0% | 0hPa | 0V | 00:00:00 | 00:00:00 | 00:00:00 | |
| LZ4TU-5 | 2026-09-01 18:54:00 | 43.28418 | 22.67004 | 214° | 49km/h | 32177m | 5.7m/s | -39.5°C | 0.0% | 0hPa | 0V | 00:00:00 | 00:00:00 | 00:00:00 | |
| LZ3DJ-16 | 2026-09-01 18:53:02 | 43.28737 | 22.67568 | 166° | 47km/h | 31821m | 6.2m/s | -40.1°C | 0.0% | 0hPa | 0V | 00:00:00 | 00:00:00 | 00:00:00 | |
| LZ3DJ-16 | 2026-09-01 18:52:41 | 43.28817 | 22.67695 | 249° | 15km/h | 31694m | 5.9m/s | -40.7°C | 0.0% | 0hPa | 0V | 00:00:00 | 00:00:00 | 00:00:00 | |
| LZ4TU-5 | 2026-09-01 18:52:36 | 43.28838 | 22.67697 | 219° | 15km/h | 31666m | 5.2m/s | -40.8°C | 0.0% | 0hPa | 0V | 00:00:00 | 00:00:00 | 00:00:00 | |
| LZ4TU-5 | 2026-09-01 18:50:34 | 43.29196 | 22.68794 | 321° | 16km/h | 30845m | 6.6m/s | -40.7°C | 0.0% | 0hPa | 0V | 00:00:00 | 00:00:00 | 00:00:00 | |
| LZ4TU-5 | 2026-09-01 18:50:30 | 43.29196 | 22.68800 | 199° | 13km/h | 30818m | 6.7m/s | -40.6°C | 0.0% | 0hPa | 0V | 00:00:00 | 00:00:00 | 00:00:00 | |
| LZ4TU-5 | 2026-09-01 18:49:14 | 43.29218 | 22.69349 | 273° | 42km/h | 30294m | 5.5m/s | -41.8°C | 0.0% | 0hPa | 0V | 00:00:00 | 00:00:00 | 00:00:00 | |
| LZ4TU-5 | 2026-09-01 18:49:09 | 43.29201 | 22.69408 | 302° | 15km/h | 30265m | 4.7m/s | -41.8°C | 0.0% | 0hPa | 0V | 00:00:00 | 00:00:00 | 00:00:00 | |
| LZ4TU-5 | 2026-09-01 18:47:54 | 43.29301 | 22.69786 | 165° | 2km/h | 29821m | 5.5m/s | -43.8°C | 0.0% | 0hPa | 0V | 00:00:00 | 00:00:00 | 00:00:00 | |
| LZ4TU-5 | 2026-09-01 18:47:49 | 43.29301 | 22.69811 | 283° | 27km/h | 29790m | 6.0m/s | -43.7°C | 0% | 0hPa | 0V | 00:00:00 | 00:00:00 | 00:00:00 | |
| LZ4TU-5 | 2026-09-01 18:46:35 | 43.29466 | 22.70182 | 223° | 46km/h | 29332m | 10.0m/s | -44.3°C | 0.0% | 0hPa | 0V | 00:00:00 | 00:00:00 | 00:00:00 | |
| LZ4TU-5 | 2026-09-01 18:46:30 | 43.29507 | 22.70232 | 271° | 24km/h | 29309m | 8.3m/s | -44.2°C | 0.0% | 0hPa | 0V | 00:00:00 | 00:00:00 | 00:00:00 | |
| LZ4TU-5 | 2026-09-01 18:45:17 | 43.29746 | 22.70492 | 336° | 7km/h | 28842m | 7.8m/s | -45.3°C | 0.0% | 0hPa | 0V | 00:00:00 | 00:00:00 | 00:00:00 | |
| LZ4TU-5 | 2026-09-01 18:45:12 | 43.29760 | 22.70506 | 178° | 33km/h | 28809m | 7.2m/s | -45.3°C | 0.0% | 0hPa | 0V | 00:00:00 | 00:00:00 | 00:00:00 | |
| LZ4TU-5 | 2026-09-01 18:43:51 | 43.30002 | 22.70653 | 182° | 47km/h | 28314m | 6.1m/s | -45.9°C | 0.0% | 0hPa | 0V | 00:00:00 | 00:00:00 | 00:00:00 | |
| LZ4TU-5 | 2026-09-01 18:43:46 | 43.30034 | 22.70660 | 60° | 9km/h | 28285m | 6.5m/s | -46.1°C | 0.0% | 0hPa | 0V | 00:00:00 | 00:00:00 | 00:00:00 | |
| LZ4TU-5 | 2026-09-01 18:42:32 | 43.30271 | 22.70721 | 233° | 18km/h | 27850m | 6.0m/s | -46.4°C | 0.0% | 0hPa | 0V | 00:00:00 | 00:00:00 | 00:00:00 | |
| LZ4TU-5 | 2026-09-01 18:42:27 | 43.30293 | 22.70744 | 180° | 20km/h | 27821m | 5.9m/s | -46.3°C | 0.0% | 0hPa | 0V | 00:00:00 | 00:00:00 | 00:00:00 | |
| LZ4TU-5 | 2026-09-01 18:41:06 | 43.30371 | 22.70579 | 183° | 15km/h | 27326m | 6.9m/s | -47.4°C | 0.0% | 0hPa | 0V | 00:00:00 | 00:00:00 | 00:00:00 | |
| LZ4TU-5 | 2026-09-01 18:41:01 | 43.30362 | 22.70592 | 26° | 18km/h | 27294m | 6.4m/s | -47.4°C | 0.0% | 0hPa | 0V | 00:00:00 | 00:00:00 | 00:00:00 | |
| LZ4TU-5 | 2026-09-01 18:39:41 | 43.30073 | 22.70760 | 339° | 20km/h | 26778m | 4.7m/s | -47.9°C | 0.0% | 0hPa | 0V | 00:00:00 | 00:00:00 | 00:00:00 | |
| LZ4TU-5 | 2026-09-01 18:39:37 | 43.30069 | 22.70788 | 250° | 37km/h | 26750m | 7.7m/s | -48.1°C | 0.0% | 0hPa | 0V | 00:00:00 | 00:00:00 | 00:00:00 | |
| LZ4TU-5 | 2026-09-01 18:38:24 | 43.30108 | 22.71016 | 238° | 13km/h | 26285m | 5.6m/s | -49.3°C | 0.0% | 0hPa | 0V | 00:00:00 | 00:00:00 | 00:00:00 | |
| LZ4TU-5 | 2026-09-01 18:38:19 | 43.30105 | 22.71056 | 283° | 20km/h | 26252m | 5.8m/s | -49.3°C | 0.0% | 0hPa | 0V | 00:00:00 | 00:00:00 | 00:00:00 | |
| LZ4TU-5 | 2026-09-01 18:37:04 | 43.30105 | 22.71132 | 296° | 20km/h | 25787m | 5.8m/s | -49.7°C | 0.0% | 0hPa | 0V | 00:00:00 | 00:00:00 | 00:00:00 | |
| LZ4TU-5 | 2026-09-01 18:36:59 | 43.30090 | 22.71138 | 20° | 29km/h | 25754m | 7.7m/s | -49.6°C | 0% | 0hPa | 0V | 00:00:00 | 00:00:00 | 00:00:00 | |
| LZ4TU-5 | 2026-09-01 18:35:46 | 43.29947 | 22.71383 | 223° | 33km/h | 25301m | 6.8m/s | -51.2°C | 0.0% | 0hPa | 0V | 00:00:00 | 00:00:00 | 00:00:00 | |
| LZ4TU-5 | 2026-09-01 18:35:41 | 43.29973 | 22.71394 | 158° | 4km/h | 25269m | 4.7m/s | -51.1°C | 0.0% | 0hPa | 0V | 00:00:00 | 00:00:00 | 00:00:00 | |
| LZ4TU-5 | 2026-09-01 18:35:35 | 43.29987 | 22.71400 | 212° | 27km/h | 25232m | 5.7m/s | -51.0°C | 0.0% | 0hPa | 0V | 00:00:00 | 00:00:00 | 00:00:00 | |
| LZ4TU-5 | 2026-09-01 18:35:28 | 43.30017 | 22.71398 | 81° | 7km/h | 25187m | 6.5m/s | -50.8°C | 0.0% | 0hPa | 0V | 00:00:00 | 00:00:00 | 00:00:00 | |
| LZ4TU-5 | 2026-09-01 18:34:10 | 43.30255 | 22.71244 | 136° | 15km/h | 24709m | 5.8m/s | -51.7°C | 0.0% | 0hPa | 0V | 00:00:00 | 00:00:00 | 00:00:00 | |
| LZ4TU-5 | 2026-09-01 18:34:05 | 43.30268 | 22.71217 | 100° | 18km/h | 24677m | 5.7m/s | -51.8°C | 0.0% | 0hPa | 0V | 00:00:00 | 00:00:00 | 00:00:00 | |
| LZ4TU-5 | 2026-09-01 18:32:51 | 43.30271 | 22.71008 | 313° | 5km/h | 24243m | 5.5m/s | -52.2°C | 0.0% | 0hPa | 0V | 00:00:00 | 00:00:00 | 00:00:00 | |
| LZ4TU-5 | 2026-09-01 18:32:47 | 43.30266 | 22.71011 | 339° | 13km/h | 24219m | 5.6m/s | -52.3°C | 0% | 0hPa | 0V | 00:00:00 | 00:00:00 | 00:00:00 | |
| LZ4TU-5 | 2026-09-01 18:31:32 | 43.30104 | 22.71153 | 274° | 15km/h | 23760m | 5.8m/s | -52.7°C | 0.0% | 0hPa | 0V | 00:00:00 | 00:00:00 | 00:00:00 | |
| LZ4TU-5 | 2026-09-01 18:31:27 | 43.30097 | 22.71184 | 312° | 20km/h | 23731m | 5.8m/s | -52.7°C | 0.0% | 0hPa | 0V | 00:00:00 | 00:00:00 | 00:00:00 | |
| LZ4TU-5 | 2026-09-01 18:30:14 | 43.30134 | 22.71286 | 75° | 4km/h | 23312m | 5.8m/s | -52.8°C | 0.0% | 0hPa | 0V | 00:00:00 | 00:00:00 | 00:00:00 | |
| LZ4TU-5 | 2026-09-01 18:30:09 | 43.30135 | 22.71268 | 92° | 18km/h | 23283m | 6.2m/s | -52.9°C | 0.0% | 0hPa | 0V | 00:00:00 | 00:00:00 | 00:00:00 | |
| LZ4TU-5 | 2026-09-01 18:27:43 | 43.30022 | 22.71040 | 303° | 15km/h | 22474m | 5.2m/s | -55.3°C | 0.0% | 0hPa | 0V | 00:00:00 | 00:00:00 | 00:00:00 | |
| LZ4TU-5 | 2026-09-01 18:27:39 | 43.30017 | 22.71045 | 20° | 9km/h | 22449m | 6.8m/s | -55.2°C | 0.0% | 0hPa | 0V | 00:00:00 | 00:00:00 | 00:00:00 | |
| LZ4TU-5 | 2026-09-01 18:26:25 | 43.29867 | 22.70959 | 313° | 9km/h | 22015m | 5.5m/s | -55.6°C | 0.0% | 0hPa | 0V | 00:00:00 | 00:00:00 | 00:00:00 | |
| LZ4TU-5 | 2026-09-01 18:26:21 | 43.29861 | 22.70956 | 40° | 9km/h | 21991m | 6.0m/s | -55.6°C | 0% | 0hPa | 0V | 00:00:00 | 00:00:00 | 00:00:00 | |
| LZ4TU-5 | 2026-09-01 18:24:58 | 43.29667 | 22.71117 | 138° | 5km/h | 21523m | 5.4m/s | -55.9°C | 0.0% | 0hPa | 0V | 00:00:00 | 00:00:00 | 00:00:00 | |
| LZ4TU-5 | 2026-09-01 18:24:53 | 43.29665 | 22.71118 | 295° | 5km/h | 21496m | 6.2m/s | -55.7°C | 0.0% | 0hPa | 0V | 00:00:00 | 00:00:00 | 00:00:00 | |
| LZ3DJ-16 | 2026-09-01 18:23:46 | 43.29830 | 22.71241 | 158° | 9km/h | 21124m | 4.2m/s | -55.2°C | 0.0% | 0hPa | 0V | 00:00:00 | 00:00:00 | 00:00:00 | |
| LZ4TU-5 | 2026-09-01 18:23:39 | 43.29849 | 22.71228 | 227° | 5km/h | 21084m | 6.9m/s | -55.1°C | 0.0% | 0hPa | 0V | 00:00:00 | 00:00:00 | 00:00:00 | |
| LZ4TU-5 | 2026-09-01 18:23:35 | 43.29854 | 22.71237 | 194° | 11km/h | 21062m | 5.9m/s | -55.2°C | 0.0% | 0hPa | 0V | 00:00:00 | 00:00:00 | 00:00:00 | |
| LZ3DJ-16 | 2026-09-01 18:22:53 | 43.30000 | 22.71221 | 124° | 11km/h | 20824m | 6.1m/s | -55.1°C | 0.0% | 0hPa | 0V | 00:00:00 | 00:00:00 | 00:00:00 | |
| LZ4TU-5 | 2026-09-01 18:22:12 | 43.29975 | 22.71066 | 0° | 0km/h | 20586m | 5.8m/s | -55.1°C | 0.0% | 0hPa | 0V | 00:00:00 | 00:00:00 | 00:00:00 | |
| LZ4TU-5 | 2026-09-01 18:22:07 | 43.29967 | 22.71049 | 60° | 22km/h | 20558m | 5.4m/s | -55.0°C | 0% | 0hPa | 0V | 00:00:00 | 00:00:00 | 00:00:00 | |
| LZ4TU-5 | 2026-09-01 18:20:52 | 43.29895 | 22.70636 | 54° | 9km/h | 20151m | 4.9m/s | -55.4°C | 0.1% | 0hPa | 0V | 00:00:00 | 00:00:00 | 00:00:00 | |
| LZ4TU-5 | 2026-09-01 18:20:47 | 43.29884 | 22.70641 | 353° | 13km/h | 20125m | 5.4m/s | -55.5°C | 0.1% | 0hPa | 0V | 00:00:00 | 00:00:00 | 00:00:00 | |
| LZ4TU-5 | 2026-09-01 18:19:34 | 43.29872 | 22.70423 | 139° | 16km/h | 19738m | 3.6m/s | -58.0°C | 0.1% | 0hPa | 0V | 00:00:00 | 00:00:00 | 00:00:00 | |
| LZ4TU-5 | 2026-09-01 18:19:29 | 43.29867 | 22.70376 | 66° | 49km/h | 19713m | 5.0m/s | -58.2°C | 0.2% | 0hPa | 0V | 00:00:00 | 00:00:00 | 00:00:00 | |
| LZ4TU-5 | 2026-09-01 18:18:03 | 43.29469 | 22.69811 | 80° | 20km/h | 19229m | 5.7m/s | -58.2°C | 0.5% | 0hPa | 0V | 00:00:00 | 00:00:00 | 00:00:00 | |
| LZ4TU-5 | 2026-09-01 18:17:58 | 43.29465 | 22.69777 | 81° | 22km/h | 19199m | 5.7m/s | -58.1°C | 0.5% | 0hPa | 0V | 00:00:00 | 00:00:00 | 00:00:00 | |
| LZ4TU-5 | 2026-09-01 18:16:38 | 43.29623 | 22.69373 | 135° | 27km/h | 18764m | 5.6m/s | -58.3°C | 0.8% | 0hPa | 0V | 00:00:00 | 00:00:00 | 00:00:00 | |
| LZ4TU-5 | 2026-09-01 18:16:33 | 43.29653 | 22.69345 | 145° | 37km/h | 18740m | 4.3m/s | -58.3°C | 0.8% | 0hPa | 0V | 00:00:00 | 00:00:00 | 00:00:00 | |
| LZ4TU-5 | 2026-09-01 18:15:19 | 43.29677 | 22.68445 | 97° | 47km/h | 18402m | 4.1m/s | -58.3°C | 1.0% | 0hPa | 0V | 00:00:00 | 00:00:00 | 00:00:00 | |
| LZ4TU-5 | 2026-09-01 18:15:14 | 43.29668 | 22.68394 | 53° | 24km/h | 18378m | 4.7m/s | -58.5°C | 1.0% | 0hPa | 0V | 00:00:00 | 00:00:00 | 00:00:00 | |
| LZ4TU-5 | 2026-09-01 18:13:56 | 43.29432 | 22.67575 | 78° | 35km/h | 17996m | 4.5m/s | -57.9°C | 1.7% | 0hPa | 0V | 00:00:00 | 00:00:00 | 00:00:00 | |
| LZ4TU-5 | 2026-09-01 18:12:43 | 43.29279 | 22.66821 | 83° | 44km/h | 17632m | 4.0m/s | -59.2°C | 1.6% | 0hPa | 0V | 00:00:00 | 00:00:00 | 00:00:00 | |
| LZ4TU-5 | 2026-09-01 18:12:38 | 43.29272 | 22.66762 | 94° | 33km/h | 17608m | 5.2m/s | -59.6°C | 1.7% | 0hPa | 0V | 00:00:00 | 00:00:00 | 00:00:00 | |
| LZ4TU-5 | 2026-09-01 18:11:30 | 43.29152 | 22.65669 | 81° | 53km/h | 17276m | 4.5m/s | -59.9°C | 2.7% | 0hPa | 0V | 00:00:00 | 00:00:00 | 00:00:00 | |
| LZ4TU-5 | 2026-09-01 18:11:25 | 43.29132 | 22.65573 | 66° | 55km/h | 17252m | 5.6m/s | -59.7°C | 2.8% | 0hPa | 0V | 00:00:00 | 00:00:00 | 00:00:00 | |
| LZ4TU-5 | 2026-09-01 18:11:21 | 43.29110 | 22.65508 | 70° | 51km/h | 17230m | 4.6m/s | -59.4°C | 0% | 0hPa | 0V | 00:00:00 | 00:00:00 | 00:00:00 | |
| LZ4TU-5 | 2026-09-01 18:11:14 | 43.29077 | 22.65396 | 57° | 51km/h | 17192m | 5.9m/s | -59.2°C | 3.0% | 0hPa | 0V | 00:00:00 | 00:00:00 | 00:00:00 | |
| LZ4TU-5 | 2026-09-01 18:11:08 | 43.29045 | 22.65303 | 77° | 51km/h | 17156m | 6.7m/s | -59.0°C | 3.1% | 0hPa | 0V | 00:00:00 | 00:00:00 | 00:00:00 | |
| LZ4TU-5 | 2026-09-01 18:11:03 | 43.29023 | 22.65225 | 56° | 47km/h | 17129m | 5.8m/s | -58.7°C | 3.2% | 0hPa | 0V | 00:00:00 | 00:00:00 | 00:00:00 | |
| LZ4TU-5 | 2026-09-01 18:09:49 | 43.28505 | 22.64261 | 90° | 47km/h | 16690m | 9.7m/s | -58.8°C | 4.5% | 0hPa | 0V | 00:00:00 | 00:00:00 | 00:00:00 | |
| LZ4TU-5 | 2026-09-01 18:09:44 | 43.28506 | 22.64183 | 79° | 49km/h | 16663m | 4.9m/s | -58.7°C | 4.6% | 0hPa | 0V | 00:00:00 | 00:00:00 | 00:00:00 | |
| LZ4TU-5 | 2026-09-01 18:08:29 | 43.28766 | 22.62976 | 108° | 62km/h | 16276m | 4.3m/s | -60.0°C | 6.0% | 0hPa | 0V | 00:00:00 | 00:00:00 | 00:00:00 | |
| LZ4TU-5 | 2026-09-01 18:08:24 | 43.28796 | 22.62886 | 113° | 57km/h | 16250m | 5.2m/s | -59.8°C | 6.1% | 0hPa | 0V | 00:00:00 | 00:00:00 | 00:00:00 | |
| LZ4TU-5 | 2026-09-01 18:07:09 | 43.28989 | 22.61099 | 105° | 69km/h | 15902m | 3.5m/s | -61.9°C | 7.0% | 0hPa | 0V | 00:00:00 | 00:00:00 | 00:00:00 | |
| LZ4TU-5 | 2026-09-01 18:05:50 | 43.28886 | 22.59112 | 88° | 71km/h | 15524m | 5.4m/s | -62.6°C | 7.7% | 0hPa | 0V | 00:00:00 | 00:00:00 | 00:00:00 | |
| LZ4TU-5 | 2026-09-01 18:04:30 | 43.28732 | 22.57156 | 78° | 78km/h | 15114m | 5.3m/s | -61.6°C | 9.7% | 0hPa | 0V | 00:00:00 | 00:00:00 | 00:00:00 | |
| LZ4TU-5 | 2026-09-01 18:04:25 | 43.28714 | 22.57027 | 87° | 73km/h | 15089m | 5.7m/s | -61.4°C | 9.8% | 0hPa | 0V | 00:00:00 | 00:00:00 | 00:00:00 | |
| LZ4TU-5 | 2026-09-01 18:03:11 | 43.28419 | 22.55142 | 81° | 69km/h | 14668m | 4.7m/s | -60.3°C | 13.5% | 0hPa | 0V | 00:00:00 | 00:00:00 | 00:00:00 | |
| LZ4TU-5 | 2026-09-01 18:03:06 | 43.28404 | 22.55024 | 81° | 69km/h | 14643m | 5.8m/s | -60.3°C | 0% | 0hPa | 0V | 00:00:00 | 00:00:00 | 00:00:00 | |
| LZ4TU-5 | 2026-09-01 18:01:52 | 43.28277 | 22.53225 | 95° | 82km/h | 14278m | 6.2m/s | -60.8°C | 17.4% | 0hPa | 0V | 00:00:00 | 00:00:00 | 00:00:00 | |
| LZ4TU-5 | 2026-09-01 18:01:47 | 43.28276 | 22.53088 | 92° | 77km/h | 14252m | 4.4m/s | -60.7°C | 17.6% | 0hPa | 0V | 00:00:00 | 00:00:00 | 00:00:00 | |
| LZ4TU-5 | 2026-09-01 18:00:24 | 43.28468 | 22.50525 | 94° | 104km/h | 13810m | 6.3m/s | -60.3°C | 20.5% | 0hPa | 0V | 00:00:00 | 00:00:00 | 00:00:00 | |
| LZ4TU-5 | 2026-09-01 18:00:19 | 43.28464 | 22.50365 | 95° | 91km/h | 13784m | 4.8m/s | -60.1°C | 20.7% | 0hPa | 0V | 00:00:00 | 00:00:00 | 00:00:00 | |
| LZ4TU-5 | 2026-09-01 17:59:04 | 43.28410 | 22.47748 | 91° | 100km/h | 13446m | 4.3m/s | -60.3°C | 22.7% | 0hPa | 0V | 00:00:00 | 00:00:00 | 00:00:00 | |
| LZ4TU-5 | 2026-09-01 17:59:00 | 43.28419 | 22.47601 | 94° | 108km/h | 13428m | 4.2m/s | -60.2°C | 22.8% | 0hPa | 0V | 00:00:00 | 00:00:00 | 00:00:00 | |
| LZ4TU-5 | 2026-09-01 17:57:31 | 43.28366 | 22.44240 | 92° | 113km/h | 13047m | 4.4m/s | -59.3°C | 21.7% | 0hPa | 0V | 00:00:00 | 00:00:00 | 00:00:00 | |
| LZ4TU-5 | 2026-09-01 17:57:26 | 43.28371 | 22.44043 | 92° | 110km/h | 13024m | 5.5m/s | -59.1°C | 21.6% | 0hPa | 0V | 00:00:00 | 00:00:00 | 00:00:00 | |
| LZ4TU-5 | 2026-09-01 17:56:13 | 43.28344 | 22.41123 | 88° | 111km/h | 12648m | 5.8m/s | -56.7°C | 20.3% | 0hPa | 0V | 00:00:00 | 00:00:00 | 00:00:00 | |
| LZ4TU-5 | 2026-09-01 17:56:08 | 43.28339 | 22.40927 | 91° | 115km/h | 12622m | 5.8m/s | -56.5°C | 20.1% | 0hPa | 0V | 00:00:00 | 00:00:00 | 00:00:00 | |
| LZ4TU-5 | 2026-09-01 17:54:54 | 43.28262 | 22.38013 | 89° | 106km/h | 12259m | 3.5m/s | -53.6°C | 19.0% | 0hPa | 0V | 00:00:00 | 00:00:00 | 00:00:00 | |
| LZ4TU-5 | 2026-09-01 17:54:49 | 43.28271 | 22.37812 | 97° | 117km/h | 12233m | 4.7m/s | -53.4°C | 19.0% | 0hPa | 0V | 00:00:00 | 00:00:00 | 00:00:00 | |
| LZ4TU-5 | 2026-09-01 17:53:34 | 43.28174 | 22.34709 | 86° | 120km/h | 11862m | 4.4m/s | -50.7°C | 24.1% | 0hPa | 0V | 00:00:00 | 00:00:00 | 00:00:00 | |
| LZ4TU-5 | 2026-09-01 17:53:29 | 43.28166 | 22.34507 | 91° | 124km/h | 11839m | 4.0m/s | -50.5°C | 25.0% | 0hPa | 0V | 00:00:00 | 00:00:00 | 00:00:00 | |
| LZ4TU-5 | 2026-09-01 17:52:13 | 43.27977 | 22.31300 | 87° | 115km/h | 11493m | 4.9m/s | -49.0°C | 33.3% | 0hPa | 0V | 00:00:00 | 00:00:00 | 00:00:00 | |
| LZ4TU-5 | 2026-09-01 17:52:08 | 43.27964 | 22.31096 | 86° | 131km/h | 11474m | 3.4m/s | -48.9°C | 32.7% | 0hPa | 0V | 00:00:00 | 00:00:00 | 00:00:00 | |
| LZ4TU-5 | 2026-09-01 17:50:46 | 43.27828 | 22.27569 | 87° | 124km/h | 11128m | 4.7m/s | -46.7°C | 26.4% | 0hPa | 0V | 00:00:00 | 00:00:00 | 00:00:00 | |
| LZ4TU-5 | 2026-09-01 17:50:41 | 43.27814 | 22.27356 | 85° | 130km/h | 11108m | 4.0m/s | -46.5°C | 24.2% | 0hPa | 0V | 00:00:00 | 00:00:00 | 00:00:00 | |
| LZ4TU-5 | 2026-09-01 17:49:25 | 43.27579 | 22.24206 | 88° | 117km/h | 10810m | 3.8m/s | -44.7°C | 20.2% | 0hPa | 0V | 00:00:00 | 00:00:00 | 00:00:00 | |
| LZ4TU-5 | 2026-09-01 17:49:20 | 43.27545 | 22.24010 | 79° | 117km/h | 10790m | 2.4m/s | -44.8°C | 20.6% | 0hPa | 0V | 00:00:00 | 00:00:00 | 00:00:00 | |
| LZ4TU-5 | 2026-09-01 17:48:09 | 43.27415 | 22.21384 | 93° | 106km/h | 10460m | 7.0m/s | -43.0°C | 25.5% | 0hPa | 0V | 00:00:00 | 00:00:00 | 00:00:00 | |
| LZ4TU-5 | 2026-09-01 17:48:05 | 43.27421 | 22.21230 | 93° | 106km/h | 10441m | 4.1m/s | -42.8°C | 25.5% | 0hPa | 0V | 00:00:00 | 00:00:00 | 00:00:00 | |
| LZ4TU-5 | 2026-09-01 17:48:00 | 43.27425 | 22.21062 | 91° | 97km/h | 10418m | 5.0m/s | -42.6°C | 25.4% | 0hPa | 0V | 00:00:00 | 00:00:00 | 00:00:00 | |
| LZ4TU-5 | 2026-09-01 17:47:55 | 43.27425 | 22.20882 | 92° | 100km/h | 10396m | 5.2m/s | -42.5°C | 0% | 0hPa | 0V | 00:00:00 | 00:00:00 | 00:00:00 | |
| LZ4TU-5 | 2026-09-01 17:46:41 | 43.27514 | 22.18417 | 97° | 91km/h | 10078m | 4.3m/s | -39.9°C | 20.6% | 0hPa | 0V | 00:00:00 | 00:00:00 | 00:00:00 | |
| LZ4TU-5 | 2026-09-01 17:46:36 | 43.27521 | 22.18254 | 94° | 102km/h | 10059m | 4.6m/s | -39.8°C | 19.9% | 0hPa | 0V | 00:00:00 | 00:00:00 | 00:00:00 | |
| LZ4TU-5 | 2026-09-01 17:45:23 | 43.27657 | 22.15829 | 95° | 86km/h | 9703m | 4.1m/s | -37.3°C | 18.6% | 0hPa | 0V | 00:00:00 | 00:00:00 | 00:00:00 | |
| LZ4TU-5 | 2026-09-01 17:45:19 | 43.27667 | 22.15707 | 99° | 89km/h | 9686m | 4.6m/s | -37.2°C | 18.6% | 0hPa | 0V | 00:00:00 | 00:00:00 | 00:00:00 | |
| LZ4TU-5 | 2026-09-01 17:45:15 | 43.27678 | 22.15582 | 95° | 99km/h | 9671m | 4.2m/s | -37.0°C | 18.5% | 0hPa | 0V | 00:00:00 | 00:00:00 | 00:00:00 | |
| LZ4TU-5 | 2026-09-01 17:45:10 | 43.27682 | 22.15415 | 96° | 86km/h | 9653m | 3.6m/s | -36.9°C | 18.3% | 0hPa | 0V | 00:00:00 | 00:00:00 | 00:00:00 | |
| LZ4TU-5 | 2026-09-01 17:43:55 | 43.27869 | 22.13148 | 100° | 77km/h | 9333m | 4.0m/s | -35.2°C | 16.8% | 0hPa | 0V | 00:00:00 | 00:00:00 | 00:00:00 | |
| LZ4TU-5 | 2026-09-01 17:42:36 | 43.28030 | 22.11255 | 101° | 64km/h | 8941m | 5.7m/s | -32.2°C | 22.5% | 0hPa | 0V | 00:00:00 | 00:00:00 | 00:00:00 | |
| LZ4TU-5 | 2026-09-01 17:42:31 | 43.28047 | 22.11135 | 103° | 68km/h | 8918m | 3.9m/s | -32.0°C | 22.6% | 0hPa | 0V | 00:00:00 | 00:00:00 | 00:00:00 | |
| LZ4TU-5 | 2026-09-01 17:41:15 | 43.28205 | 22.09578 | 108° | 58km/h | 8561m | 4.1m/s | -29.2°C | 24.7% | 0hPa | 0V | 00:00:00 | 00:00:00 | 00:00:00 | |
| LZ4TU-5 | 2026-09-01 17:41:10 | 43.28212 | 22.09488 | 93° | 60km/h | 8540m | 3.2m/s | -29.0°C | 24.4% | 0hPa | 0V | 00:00:00 | 00:00:00 | 00:00:00 | |
| LZ4TU-5 | 2026-09-01 17:39:47 | 43.28556 | 22.07802 | 119° | 62km/h | 8138m | 5.2m/s | -25.4°C | 23.3% | 0hPa | 0V | 00:00:00 | 00:00:00 | 00:00:00 | |
| LZ4TU-5 | 2026-09-01 17:39:42 | 43.28596 | 22.07702 | 108° | 55km/h | 8118m | 5.0m/s | -25.3°C | 0% | 0hPa | 0V | 00:00:00 | 00:00:00 | 00:00:00 | |
| LZ4TU-5 | 2026-09-01 17:38:34 | 43.28867 | 22.06340 | 121° | 68km/h | 7765m | 4.0m/s | -22.4°C | 24.8% | 0hPa | 0V | 00:00:00 | 00:00:00 | 00:00:00 | |
| LZ4TU-5 | 2026-09-01 17:38:29 | 43.28900 | 22.06266 | 108° | 37km/h | 7737m | 6.0m/s | -22.1°C | 24.5% | 0hPa | 0V | 00:00:00 | 00:00:00 | 00:00:00 | |
| LZ4TU-5 | 2026-09-01 17:37:21 | 43.29101 | 22.04935 | 92° | 66km/h | 7384m | 2.4m/s | -19.5°C | 28.8% | 0hPa | 0V | 00:00:00 | 00:00:00 | 00:00:00 | |
| LZ4TU-5 | 2026-09-01 17:37:17 | 43.29116 | 22.04857 | 124° | 53km/h | 7365m | 4.1m/s | -19.4°C | 0% | 0hPa | 0V | 00:00:00 | 00:00:00 | 00:00:00 | |
| LZ4TU-5 | 2026-09-01 17:36:12 | 43.29354 | 22.03569 | 109° | 47km/h | 7003m | 6.4m/s | -16.4°C | 21.5% | 0hPa | 0V | 00:00:00 | 00:00:00 | 00:00:00 | |
| LZ4TU-5 | 2026-09-01 17:36:07 | 43.29375 | 22.03483 | 107° | 73km/h | 6978m | 4.2m/s | -16.1°C | 18.6% | 0hPa | 0V | 00:00:00 | 00:00:00 | 00:00:00 | |
| LZ4TU-5 | 2026-09-01 17:34:58 | 43.29588 | 22.02231 | 94° | 66km/h | 6611m | 5.2m/s | -12.9°C | 10.7% | 0hPa | 0V | 00:00:00 | 00:00:00 | 00:00:00 | |
| LZ4TU-5 | 2026-09-01 17:34:53 | 43.29595 | 22.02144 | 105° | 31km/h | 6584m | 6.5m/s | -12.7°C | 9.4% | 0hPa | 0V | 00:00:00 | 00:00:00 | 00:00:00 | |
| LZ4TU-5 | 2026-09-01 17:33:39 | 43.29808 | 22.00891 | 112° | 55km/h | 6194m | 5.3m/s | -10.4°C | 5.0% | 0hPa | 0V | 00:00:00 | 00:00:00 | 00:00:00 | |
| LZ4TU-5 | 2026-09-01 17:33:34 | 43.29823 | 22.00816 | 77° | 38km/h | 6165m | 6.2m/s | -10.2°C | 5.0% | 0hPa | 0V | 00:00:00 | 00:00:00 | 00:00:00 | |
| LZ4TU-5 | 2026-09-01 17:32:30 | 43.29896 | 21.99714 | 100° | 29km/h | 5866m | 3.5m/s | -8.1°C | 7.3% | 0hPa | 0V | 00:00:00 | 00:00:00 | 00:00:00 | |
| LZ4TU-5 | 2026-09-01 17:31:23 | 43.30030 | 21.98638 | 108° | 33km/h | 5557m | 5.3m/s | -6.1°C | 8.2% | 0hPa | 0V | 00:00:00 | 00:00:00 | 00:00:00 | |
| LZ4TU-5 | 2026-09-01 17:31:18 | 43.30059 | 21.98559 | 99° | 57km/h | 5533m | 6.1m/s | -5.9°C | 8.6% | 0hPa | 0V | 00:00:00 | 00:00:00 | 00:00:00 | |
| LZ4TU-5 | 2026-09-01 17:30:16 | 43.30212 | 21.97632 | 107° | 57km/h | 5240m | 5.1m/s | -4.7°C | 9.5% | 0hPa | 0V | 00:00:00 | 00:00:00 | 00:00:00 | |
| LZ4TU-5 | 2026-09-01 17:30:12 | 43.30227 | 21.97560 | 102° | 51km/h | 5218m | 5.0m/s | -4.6°C | 9.3% | 0hPa | 0V | 00:00:00 | 00:00:00 | 00:00:00 | |
| LZ4TU-5 | 2026-09-01 17:29:11 | 43.30411 | 21.96665 | 128° | 55km/h | 4917m | 4.5m/s | -3.1°C | 7.8% | 0hPa | 0V | 00:00:00 | 00:00:00 | 00:00:00 | |
| LZ4TU-5 | 2026-09-01 17:29:06 | 43.30429 | 21.96616 | 91° | 42km/h | 4890m | 6.6m/s | -2.9°C | 0% | 0hPa | 0V | 00:00:00 | 00:00:00 | 00:00:00 | |
| LZ4TU-5 | 2026-09-01 17:28:04 | 43.30612 | 21.95786 | 116° | 47km/h | 4555m | 4.3m/s | -1.2°C | 8.5% | 0hPa | 0V | 00:00:00 | 00:00:00 | 00:00:00 | |
| LZ4TU-5 | 2026-09-01 17:28:00 | 43.30642 | 21.95736 | 137° | 38km/h | 4539m | 4.0m/s | -1.1°C | 8.2% | 0hPa | 0V | 00:00:00 | 00:00:00 | 00:00:00 | |
| LZ4TU-5 | 2026-09-01 17:26:59 | 43.30738 | 21.94893 | 102° | 31km/h | 4174m | 5.4m/s | 0.1°C | 36.1% | 0hPa | 0V | 00:00:00 | 00:00:00 | 00:00:00 | |
| LZ4TU-5 | 2026-09-01 17:26:55 | 43.30730 | 21.94831 | 85° | 62km/h | 4150m | 5.8m/s | 0.2°C | 0% | 0hPa | 0V | 00:00:00 | 00:00:00 | 00:00:00 | |
| LZ4TU-5 | 2026-09-01 17:25:54 | 43.30736 | 21.93749 | 78° | 55km/h | 3801m | 6.1m/s | 2.4°C | 59.9% | 0hPa | 0V | 00:00:00 | 00:00:00 | 00:00:00 | |
| LZ4TU-5 | 2026-09-01 17:25:49 | 43.30736 | 21.93649 | 110° | 64km/h | 3773m | 5.8m/s | 2.7°C | 61.0% | 0hPa | 0V | 00:00:00 | 00:00:00 | 00:00:00 |